createdAt,value
2022-08-26T00:01:44.029Z,21.83
2022-08-26T00:04:12.207Z,26.67
2022-08-26T00:06:42.576Z,23.73
2022-08-26T00:09:13.462Z,18.47
2022-08-26T00:11:43.512Z,13.57
2022-08-26T00:14:10.661Z,24.33
2022-08-26T00:16:37.873Z,18.80
2022-08-26T00:19:08.402Z,18.97
2022-08-26T00:21:37.567Z,15.27
2022-08-26T00:24:05.934Z,17.77
2022-08-26T00:26:34.811Z,20.90
2022-08-26T00:29:01.959Z,18.23
2022-08-26T00:31:31.227Z,18.70
2022-08-26T00:33:58.687Z,24.07
2022-08-26T00:36:29.500Z,23.93
2022-08-26T00:38:56.979Z,17.27
2022-08-26T00:41:24.441Z,15.13
2022-08-26T00:43:51.918Z,27.23
2022-08-26T00:46:22.483Z,19.97
2022-08-26T00:48:53.484Z,20.00
2022-08-26T00:51:23.004Z,26.23
2022-08-26T00:53:55.973Z,22.77
2022-08-26T00:56:31.758Z,17.43
2022-08-26T00:59:01.592Z,20.67
2022-08-26T01:01:31.489Z,24.50
2022-08-26T01:03:59.937Z,17.00
2022-08-26T01:06:28.453Z,16.03
2022-08-26T01:08:56.105Z,23.80
2022-08-26T01:11:24.423Z,19.07
2022-08-26T01:13:54.641Z,18.63
2022-08-26T01:16:22.516Z,19.70
2022-08-26T01:18:49.799Z,19.30
2022-08-26T01:21:29.449Z,16.07
2022-08-26T01:23:58.488Z,17.33
2022-08-26T01:26:27.564Z,20.47
2022-08-26T01:28:55.885Z,19.80
2022-08-26T01:31:24.977Z,21.20
2022-08-26T01:33:55.899Z,22.17
2022-08-26T01:36:24.911Z,19.57
2022-08-26T01:38:52.886Z,20.17
2022-08-26T01:41:27.276Z,16.57
2022-08-26T01:43:57.888Z,21.40
2022-08-26T01:46:26.346Z,20.43
2022-08-26T01:48:55.233Z,25.13
2022-08-26T01:51:24.316Z,22.23
2022-08-26T01:53:51.588Z,14.63
2022-08-26T01:56:22.456Z,19.73
2022-08-26T01:58:54.869Z,15.30
2022-08-26T02:01:23.141Z,22.20
2022-08-26T02:04:01.990Z,20.43
2022-08-26T02:06:29.233Z,18.33
2022-08-26T02:08:58.632Z,24.13
2022-08-26T02:11:26.170Z,17.63
2022-08-26T02:13:56.139Z,17.03
2022-08-26T02:16:25.343Z,22.07
2022-08-26T02:18:53.696Z,20.43
2022-08-26T02:21:20.906Z,23.00
2022-08-26T02:23:48.078Z,18.40
2022-08-26T02:26:17.962Z,21.13
2022-08-26T02:28:50.203Z,17.70
2022-08-26T02:31:17.431Z,15.70
2022-08-26T02:33:44.707Z,15.20
2022-08-26T02:36:13.379Z,18.87
2022-08-26T02:38:40.759Z,21.77
2022-08-26T02:41:11.206Z,15.77
2022-08-26T02:43:38.328Z,17.17
2022-08-26T02:46:06.096Z,17.50
2022-08-26T02:48:33.516Z,14.80
2022-08-26T02:51:01.818Z,20.90
2022-08-26T02:53:31.843Z,16.63
2022-08-26T02:56:02.723Z,18.67
2022-08-26T02:58:30.453Z,24.60
2022-08-26T03:00:57.679Z,18.33
2022-08-26T03:03:25.316Z,14.60
2022-08-26T03:05:53.095Z,20.23
2022-08-26T03:08:22.210Z,21.33
2022-08-26T03:10:49.442Z,12.70
2022-08-26T03:13:16.700Z,20.93
2022-08-26T03:15:44.510Z,23.33
2022-08-26T03:18:14.973Z,19.77
2022-08-26T03:20:42.220Z,19.30
2022-08-26T03:23:11.165Z,14.47
2022-08-26T03:25:38.646Z,18.37
2022-08-26T03:28:05.767Z,16.60
2022-08-26T03:30:44.805Z,14.93
2022-08-26T03:33:12.829Z,15.77
2022-08-26T03:35:41.645Z,18.00
2022-08-26T03:38:09.154Z,24.90
2022-08-26T03:40:36.808Z,18.13
2022-08-26T03:43:04.951Z,16.07
2022-08-26T03:45:32.874Z,18.07
2022-08-26T03:48:00.363Z,16.90
2022-08-26T03:50:28.950Z,19.17
2022-08-26T03:52:56.279Z,27.37
2022-08-26T03:55:25.075Z,20.30
2022-08-26T03:57:52.914Z,20.67
2022-08-26T04:00:21.003Z,19.33
2022-08-26T04:02:51.231Z,16.70
2022-08-26T04:05:21.785Z,19.80
2022-08-26T04:07:49.907Z,14.57
2022-08-26T04:10:20.405Z,16.80
2022-08-26T04:12:47.764Z,17.20
2022-08-26T04:15:15.788Z,13.63
2022-08-26T04:17:43.065Z,18.13
2022-08-26T04:20:13.793Z,18.80
2022-08-26T04:22:43.430Z,17.23
2022-08-26T04:25:10.842Z,15.70
2022-08-26T04:27:37.964Z,14.70
2022-08-26T04:30:08.893Z,13.67
2022-08-26T04:32:37.331Z,15.17
2022-08-26T04:35:05.152Z,18.17
2022-08-26T04:37:33.584Z,17.00
2022-08-26T04:40:00.773Z,15.30
2022-08-26T04:42:29.293Z,16.83
2022-08-26T04:44:56.491Z,19.10
2022-08-26T04:47:27.038Z,19.57
2022-08-26T04:49:57.412Z,21.67
2022-08-26T04:52:24.979Z,15.90
2022-08-26T04:54:52.624Z,15.40
2022-08-26T04:57:19.794Z,19.07
2022-08-26T04:59:46.988Z,17.00
2022-08-26T05:02:16.714Z,20.47
2022-08-26T05:04:43.904Z,20.57
2022-08-26T05:07:11.842Z,15.30
2022-08-26T05:09:42.152Z,24.37
2022-08-26T05:12:09.752Z,20.13
2022-08-26T05:14:36.933Z,16.00
2022-08-26T05:17:04.727Z,14.23
2022-08-26T05:19:32.650Z,18.87
2022-08-26T05:21:59.878Z,20.47
2022-08-26T05:24:26.995Z,20.77
2022-08-26T05:26:54.551Z,21.80
2022-08-26T05:29:24.032Z,15.70
2022-08-26T05:31:52.378Z,16.57
2022-08-26T05:34:20.833Z,15.67
2022-08-26T05:36:48.391Z,20.97
2022-08-26T05:39:15.617Z,16.00
2022-08-26T05:41:44.738Z,18.40
2022-08-26T05:44:13.942Z,15.93
2022-08-26T05:46:42.155Z,20.67
2022-08-26T05:49:12.587Z,16.87
2022-08-26T05:51:40.495Z,17.17
2022-08-26T05:54:07.671Z,21.77
2022-08-26T05:56:37.832Z,17.83
2022-08-26T05:59:05.217Z,18.50
2022-08-26T06:01:35.477Z,16.70
2022-08-26T06:04:03.368Z,19.00
2022-08-26T06:06:32.268Z,18.80
2022-08-26T06:09:00.733Z,14.13
2022-08-26T06:11:28.686Z,20.20
2022-08-26T06:14:03.067Z,19.47
2022-08-26T06:16:31.063Z,22.50
2022-08-26T06:18:58.200Z,21.27
2022-08-26T06:21:26.773Z,21.10
2022-08-26T06:24:13.876Z,18.80
2022-08-26T06:26:42.818Z,17.27
2022-08-26T06:29:10.504Z,18.33
2022-08-26T06:31:37.654Z,13.97
2022-08-26T06:34:10.528Z,18.77
2022-08-26T06:36:39.393Z,12.90
2022-08-26T06:39:09.428Z,16.77
2022-08-26T06:41:41.431Z,18.77
2022-08-26T06:44:10.539Z,21.53
2022-08-26T06:46:37.851Z,22.83
2022-08-26T06:49:05.572Z,16.63
2022-08-26T06:51:34.643Z,14.03
2022-08-26T06:54:02.299Z,16.90
2022-08-26T06:56:33.239Z,13.13
2022-08-26T06:59:00.429Z,16.63
2022-08-26T07:01:29.497Z,19.17
2022-08-26T07:03:57.841Z,20.67
2022-08-26T07:06:26.210Z,18.30
2022-08-26T07:08:54.198Z,16.13
2022-08-26T07:11:21.713Z,16.40
2022-08-26T07:13:54.431Z,17.00
2022-08-26T07:16:21.935Z,18.10
2022-08-26T07:18:52.958Z,19.50
2022-08-26T07:21:20.761Z,21.50
2022-08-26T07:23:49.333Z,19.13
2022-08-26T07:26:18.988Z,18.03
2022-08-26T07:28:47.360Z,18.80
2022-08-26T07:31:15.672Z,20.40
2022-08-26T07:33:43.282Z,20.27
2022-08-26T07:36:11.679Z,18.20
2022-08-26T07:38:39.596Z,20.17
2022-08-26T07:41:07.493Z,18.07
2022-08-26T07:43:36.441Z,60.73
2022-08-26T07:46:06.668Z,16.07
2022-08-26T07:48:34.582Z,20.13
2022-08-26T07:51:03.394Z,18.73
2022-08-26T07:53:30.609Z,15.83
2022-08-26T07:55:59.115Z,14.17
2022-08-26T07:58:26.449Z,20.50
2022-08-26T08:00:53.653Z,23.73
2022-08-26T08:03:20.868Z,18.60
2022-08-26T08:05:49.398Z,16.80
2022-08-26T08:08:27.263Z,19.83
2022-08-26T08:10:56.910Z,14.30
2022-08-26T08:13:24.447Z,13.63
2022-08-26T08:15:51.621Z,19.30
2022-08-26T08:18:20.477Z,16.33
2022-08-26T08:21:04.701Z,15.43
2022-08-26T08:23:32.786Z,16.27
2022-08-26T08:26:04.272Z,17.43
2022-08-26T08:28:31.387Z,14.40
2022-08-26T08:30:59.637Z,17.87
2022-08-26T08:33:27.005Z,16.60
2022-08-26T08:35:55.069Z,15.70
2022-08-26T08:38:22.278Z,15.13
2022-08-26T08:40:49.533Z,16.60
2022-08-26T08:43:37.778Z,16.73
2022-08-26T08:46:08.151Z,15.60
2022-08-26T08:48:37.681Z,19.10
2022-08-26T08:51:14.849Z,16.37
2022-08-26T08:53:43.321Z,17.27
2022-08-26T08:56:23.558Z,15.40
2022-08-26T08:59:00.320Z,21.20
2022-08-26T09:01:30.654Z,16.30
2022-08-26T09:04:20.816Z,13.23
2022-08-26T09:06:49.302Z,15.77
2022-08-26T09:09:22.143Z,18.77
2022-08-26T09:11:49.444Z,16.13
2022-08-26T09:14:16.548Z,13.90
2022-08-26T09:16:51.633Z,20.97
2022-08-26T09:19:19.258Z,16.27
2022-08-26T09:21:47.280Z,16.65
2022-08-26T09:24:20.520Z,15.70
2022-08-26T09:26:49.703Z,17.02
2022-08-26T09:29:28.272Z,18.30
2022-08-26T09:32:16.071Z,17.47
2022-08-26T09:34:53.974Z,16.63
2022-08-26T09:40:22.389Z,14.97
2022-08-26T09:43:09.851Z,14.60
2022-08-26T09:45:38.664Z,12.90
2022-08-26T09:48:07.227Z,21.37
2022-08-26T09:50:39.920Z,13.37
2022-08-26T09:53:14.500Z,16.43
2022-08-26T09:55:43.055Z,20.20
2022-08-26T09:58:14.593Z,13.80
2022-08-26T10:00:43.567Z,19.37
2022-08-26T10:03:12.357Z,17.63
2022-08-26T10:05:44.548Z,15.53
2022-08-26T10:08:32.647Z,22.60
2022-08-26T10:11:00.711Z,16.37
2022-08-26T10:13:32.354Z,17.50
2022-08-26T10:16:04.469Z,17.63
2022-08-26T10:18:36.238Z,19.73
2022-08-26T10:21:03.975Z,18.87
2022-08-26T10:23:37.942Z,17.03
2022-08-26T10:26:14.432Z,17.57
2022-08-26T10:28:49.039Z,17.80
2022-08-26T10:31:48.727Z,19.60
2022-08-26T10:34:19.259Z,19.20
2022-08-26T10:37:14.753Z,17.73
2022-08-26T10:39:40.626Z,17.43
2022-08-26T10:42:14.516Z,17.00
2022-08-26T10:44:43.788Z,13.87
2022-08-26T10:47:15.633Z,19.87
2022-08-26T10:49:43.954Z,15.50
2022-08-26T10:52:35.128Z,16.57
2022-08-26T10:55:12.805Z,16.63
2022-08-26T10:57:39.962Z,16.43
2022-08-26T11:00:31.392Z,11.63
2022-08-26T11:03:04.061Z,15.67
2022-08-26T11:05:31.240Z,11.40
2022-08-26T11:08:18.587Z,17.57
2022-08-26T11:10:52.223Z,13.33
2022-08-26T11:13:19.382Z,14.10
2022-08-26T11:15:58.601Z,13.90
2022-08-26T11:18:39.576Z,15.10
2022-08-26T11:21:26.662Z,12.27
2022-08-26T11:23:56.932Z,11.80
2022-08-26T11:26:37.718Z,10.40
2022-08-26T11:29:41.661Z,11.87
2022-08-26T11:32:24.871Z,11.67
2022-08-26T11:34:59.171Z,12.17
2022-08-26T11:37:32.535Z,10.37
2022-08-26T11:40:01.556Z,8.80
2022-08-26T11:42:33.168Z,8.63
2022-08-26T11:45:05.348Z,8.60
2022-08-26T11:47:32.952Z,8.23
2022-08-26T11:50:11.345Z,9.17
2022-08-26T11:52:38.458Z,5.57
2022-08-26T11:55:07.878Z,11.83
2022-08-26T11:57:36.789Z,6.33
2022-08-26T12:00:12.017Z,6.00
2022-08-26T12:02:41.664Z,4.97
2022-08-26T12:05:08.978Z,5.37
2022-08-26T12:07:36.218Z,7.00
2022-08-26T12:10:05.193Z,7.47
2022-08-26T12:12:35.963Z,5.17
2022-08-26T12:15:06.228Z,6.50
2022-08-26T12:17:33.477Z,8.10
2022-08-26T12:20:00.617Z,8.83
2022-08-26T12:22:30.141Z,9.37
2022-08-26T12:25:01.522Z,10.83
2022-08-26T12:27:30.160Z,13.03
2022-08-26T12:30:09.615Z,12.03
2022-08-26T12:32:56.554Z,10.70
2022-08-26T12:35:26.020Z,9.03
2022-08-26T12:37:54.676Z,8.40
2022-08-26T12:40:25.308Z,8.47
2022-08-26T12:42:52.562Z,9.57
2022-08-26T12:45:29.789Z,7.10
2022-08-26T12:47:59.809Z,10.00
2022-08-26T12:50:31.721Z,7.53
2022-08-26T12:53:05.014Z,7.70
2022-08-26T12:55:32.140Z,6.13
2022-08-26T12:58:17.447Z,10.30
2022-08-26T13:00:55.500Z,9.87
2022-08-26T13:03:34.760Z,7.50
2022-08-26T13:06:15.575Z,8.82
2022-08-26T13:08:44.336Z,9.30
2022-08-26T13:11:20.561Z,9.40
2022-08-26T13:13:58.884Z,6.20
2022-08-26T13:16:26.657Z,7.83
2022-08-26T13:18:55.755Z,9.97
2022-08-26T13:21:26.160Z,6.90
2022-08-26T13:23:54.545Z,9.77
2022-08-26T13:26:22.276Z,8.23
2022-08-26T13:29:02.235Z,6.40
2022-08-26T13:31:30.716Z,10.70
2022-08-26T13:33:58.042Z,7.33
2022-08-26T13:36:25.382Z,8.80
2022-08-26T13:38:52.575Z,7.80
2022-08-26T13:41:29.125Z,10.33
2022-08-26T13:43:56.864Z,6.83
2022-08-26T13:46:29.710Z,6.63
2022-08-26T13:48:57.397Z,10.17
2022-08-26T13:51:24.822Z,9.43
2022-08-26T13:53:52.278Z,9.33
2022-08-26T13:56:19.803Z,10.83
2022-08-26T13:58:47.763Z,11.83
2022-08-26T14:01:17.139Z,8.43
2022-08-26T14:03:44.579Z,7.83
2022-08-26T14:06:11.977Z,8.63
2022-08-26T14:08:39.685Z,6.53
2022-08-26T14:11:06.980Z,11.13
2022-08-26T14:13:34.553Z,7.47
2022-08-26T14:16:02.843Z,10.37
2022-08-26T14:18:32.183Z,7.43
2022-08-26T14:20:59.376Z,8.00
2022-08-26T14:23:26.714Z,7.73
2022-08-26T14:25:54.196Z,6.07
2022-08-26T14:28:21.675Z,7.70
2022-08-26T14:30:51.768Z,9.87
2022-08-26T14:33:20.867Z,7.97
2022-08-26T14:35:48.973Z,11.33
2022-08-26T14:38:17.234Z,5.43
2022-08-26T14:40:45.048Z,8.67
2022-08-26T14:43:15.172Z,8.23
2022-08-26T14:45:43.605Z,6.80
2022-08-26T14:48:10.969Z,9.80
2022-08-26T14:50:38.352Z,8.73
2022-08-26T14:53:24.326Z,8.27
2022-08-26T14:55:51.554Z,6.43
2022-08-26T14:58:18.730Z,7.90
2022-08-26T15:00:45.869Z,6.50
2022-08-26T15:05:48.026Z,9.17
2022-08-26T15:08:15.964Z,7.67
2022-08-26T15:10:43.637Z,9.50
2022-08-26T15:13:10.815Z,7.37
2022-08-26T15:15:38.067Z,10.67
2022-08-26T15:18:05.994Z,10.77
2022-08-26T15:23:06.983Z,9.07
2022-08-26T15:25:34.873Z,8.57
2022-08-26T15:28:02.090Z,7.07
2022-08-26T15:30:29.258Z,9.37
2022-08-26T15:32:56.402Z,9.23
2022-08-26T15:35:24.101Z,6.70
2022-08-26T15:40:23.420Z,7.13
2022-08-26T15:42:57.523Z,8.50
2022-08-26T15:45:28.704Z,8.80
2022-08-26T15:48:01.235Z,8.03
2022-08-26T15:50:30.100Z,8.53
2022-08-26T15:52:59.571Z,8.63
2022-08-26T15:55:26.879Z,7.63
2022-08-26T15:57:55.735Z,7.13
2022-08-26T16:00:23.977Z,6.97
2022-08-26T16:02:51.237Z,6.50
2022-08-26T16:05:18.631Z,10.27
2022-08-26T16:07:45.798Z,5.90
2022-08-26T16:10:13.138Z,5.40
2022-08-26T16:12:40.334Z,5.73
2022-08-26T16:15:07.779Z,7.53
2022-08-26T16:17:35.130Z,5.53
2022-08-26T16:20:02.625Z,5.53
2022-08-26T16:22:31.142Z,6.27
2022-08-26T16:25:00.416Z,5.17
2022-08-26T16:27:27.596Z,7.67
2022-08-26T16:29:55.368Z,7.03
2022-08-26T16:32:22.543Z,4.60
2022-08-26T16:34:56.579Z,5.20
2022-08-26T16:37:24.151Z,8.87
2022-08-26T16:39:51.379Z,6.33
2022-08-26T16:42:18.627Z,6.60
2022-08-26T16:44:45.925Z,5.77
2022-08-26T16:47:14.108Z,5.03
2022-08-26T16:49:42.094Z,5.70
2022-08-26T16:52:10.022Z,6.20
2022-08-26T16:54:39.651Z,7.43
2022-08-26T16:57:07.950Z,6.97
2022-08-26T16:59:35.465Z,9.70
2022-08-26T17:02:03.089Z,6.70
2022-08-26T17:04:30.362Z,8.50
2022-08-26T17:06:58.021Z,6.20
2022-08-26T17:09:25.391Z,6.10
2022-08-26T17:11:53.116Z,10.27
2022-08-26T17:14:20.545Z,6.37
2022-08-26T17:16:51.181Z,5.67
2022-08-26T17:19:19.225Z,8.60
2022-08-26T17:21:47.147Z,7.83
2022-08-26T17:24:14.816Z,8.30
2022-08-26T17:26:44.339Z,6.43
2022-08-26T17:29:15.588Z,7.03
2022-08-26T17:31:42.715Z,5.87
2022-08-26T17:34:10.805Z,5.80
2022-08-26T17:36:37.979Z,9.03
2022-08-26T17:39:05.223Z,6.77
2022-08-26T17:41:33.025Z,7.50
2022-08-26T17:44:00.198Z,6.70
2022-08-26T17:46:27.506Z,5.73
2022-08-26T17:48:55.221Z,6.63
2022-08-26T17:51:23.448Z,5.43
2022-08-26T17:53:51.315Z,7.50
2022-08-26T17:56:20.599Z,4.97
2022-08-26T17:58:51.619Z,4.77
2022-08-26T18:01:19.194Z,8.13
2022-08-26T18:03:46.506Z,4.43
2022-08-26T18:06:14.670Z,6.53
2022-08-26T18:08:42.032Z,5.57
2022-08-26T18:11:14.595Z,7.03
2022-08-26T18:13:47.026Z,5.97
2022-08-26T18:16:14.856Z,7.33
2022-08-26T18:18:42.246Z,6.53
2022-08-26T18:21:19.530Z,5.97
2022-08-26T18:23:47.306Z,9.83
2022-08-26T18:26:23.283Z,7.93
2022-08-26T18:28:50.433Z,7.67
2022-08-26T18:31:18.300Z,7.10
2022-08-26T18:33:45.670Z,70.27
2022-08-26T18:36:16.534Z,14.57
2022-08-26T18:38:43.751Z,19.57
2022-08-26T18:41:10.896Z,6.37
2022-08-26T18:43:38.085Z,6.57
2022-08-26T18:46:06.495Z,6.13
2022-08-26T18:48:34.268Z,5.13
2022-08-26T18:51:01.454Z,5.30
2022-08-26T18:53:28.716Z,7.23
2022-08-26T18:55:55.911Z,7.73
2022-08-26T18:58:23.054Z,8.23
2022-08-26T19:00:50.393Z,6.20
2022-08-26T19:03:18.798Z,7.93
2022-08-26T19:05:46.799Z,7.57
2022-08-26T19:08:14.087Z,5.47
2022-08-26T19:10:41.543Z,6.87
2022-08-26T19:13:09.744Z,6.83
2022-08-26T19:15:40.894Z,5.23
2022-08-26T19:18:08.601Z,4.97
2022-08-26T19:20:38.564Z,5.93
2022-08-26T19:23:10.773Z,7.07
2022-08-26T19:25:53.884Z,9.57
2022-08-26T19:28:21.360Z,7.10
2022-08-26T19:30:52.889Z,6.30
2022-08-26T19:33:20.417Z,8.37
2022-08-26T19:35:47.703Z,6.77
2022-08-26T19:38:16.337Z,6.20
2022-08-26T19:40:43.595Z,6.53
2022-08-26T19:43:11.975Z,6.00
2022-08-26T19:45:40.185Z,5.60
2022-08-26T19:48:07.443Z,6.20
2022-08-26T19:50:35.023Z,6.57
2022-08-26T19:53:04.092Z,5.33
2022-08-26T19:55:31.703Z,5.50
2022-08-26T19:57:58.887Z,7.47
2022-08-26T20:00:27.327Z,6.27
2022-08-26T20:02:55.460Z,7.57
2022-08-26T20:05:23.867Z,5.27
2022-08-26T20:07:51.363Z,7.37
2022-08-26T20:10:21.008Z,5.77
2022-08-26T20:12:48.744Z,8.00
2022-08-26T20:15:16.735Z,6.43
2022-08-26T20:17:43.870Z,5.07
2022-08-26T20:20:33.464Z,6.20
2022-08-26T20:23:01.596Z,6.13
2022-08-26T20:25:28.857Z,8.67
2022-08-26T20:27:56.010Z,6.87
2022-08-26T20:30:23.238Z,7.93
2022-08-26T20:32:50.427Z,6.37
2022-08-26T20:35:17.802Z,5.50
2022-08-26T20:37:45.051Z,6.97
2022-08-26T20:40:13.279Z,5.50
2022-08-26T20:42:40.502Z,6.10
2022-08-26T20:45:08.021Z,5.70
2022-08-26T20:47:35.440Z,6.33
2022-08-26T20:50:02.822Z,5.03
2022-08-26T20:52:30.208Z,5.57
2022-08-26T20:54:57.384Z,6.53
2022-08-26T20:57:24.575Z,7.20
2022-08-26T20:59:51.828Z,6.80
2022-08-26T21:02:19.231Z,6.57
2022-08-26T21:04:46.435Z,5.47
2022-08-26T21:07:13.656Z,6.00
2022-08-26T21:09:41.317Z,6.40
2022-08-26T21:12:09.443Z,6.87
2022-08-26T21:14:36.610Z,6.17
2022-08-26T21:17:04.222Z,9.70
2022-08-26T21:19:31.424Z,7.00
2022-08-26T21:21:59.396Z,6.37
2022-08-26T21:24:26.579Z,9.67
2022-08-26T21:26:53.761Z,6.93
2022-08-26T21:29:22.055Z,8.40
2022-08-26T21:31:49.328Z,7.17
2022-08-26T21:34:20.039Z,8.13
2022-08-26T21:36:47.902Z,8.47
2022-08-26T21:39:15.167Z,9.13
2022-08-26T21:41:43.268Z,14.77
2022-08-26T21:44:11.130Z,12.27
2022-08-26T21:46:38.298Z,8.73
2022-08-26T21:49:07.473Z,8.23
2022-08-26T21:51:36.363Z,7.60
2022-08-26T21:54:06.552Z,10.93
2022-08-26T21:56:39.844Z,6.97
2022-08-26T21:59:07.584Z,7.93
2022-08-26T22:01:35.487Z,7.73
2022-08-26T22:04:06.387Z,9.47
2022-08-26T22:06:34.764Z,10.63
2022-08-26T22:09:01.971Z,7.60
2022-08-26T22:11:29.487Z,8.93
2022-08-26T22:13:56.966Z,9.20
2022-08-26T22:16:26.885Z,9.27
2022-08-26T22:18:55.193Z,10.07
2022-08-26T22:21:24.878Z,7.03
2022-08-26T22:23:56.124Z,8.50
2022-08-26T22:26:27.081Z,5.80
2022-08-26T22:28:59.143Z,8.87
2022-08-26T22:31:28.187Z,9.20
2022-08-26T22:34:06.410Z,8.60
2022-08-26T22:36:33.550Z,8.87
2022-08-26T22:39:01.653Z,6.20
2022-08-26T22:41:28.955Z,7.90
2022-08-26T22:44:02.331Z,8.43
2022-08-26T22:46:29.521Z,11.47
2022-08-26T22:48:57.025Z,8.60
2022-08-26T22:51:24.565Z,9.37
2022-08-26T22:53:51.762Z,10.33
2022-08-26T22:56:19.116Z,7.90
2022-08-26T22:58:46.336Z,10.47
2022-08-26T23:01:13.608Z,11.30
2022-08-26T23:03:41.348Z,5.87
2022-08-26T23:06:12.177Z,8.43
2022-08-26T23:08:40.425Z,8.47
2022-08-26T23:11:08.760Z,6.50
2022-08-26T23:13:36.461Z,7.10
2022-08-26T23:16:04.771Z,6.93
2022-08-26T23:18:32.193Z,6.83
2022-08-26T23:20:59.349Z,6.33
2022-08-26T23:23:27.651Z,9.70
2022-08-26T23:25:55.318Z,7.87
2022-08-26T23:28:22.844Z,8.60
2022-08-26T23:30:50.602Z,12.00
2022-08-26T23:33:17.816Z,6.67
2022-08-26T23:35:44.991Z,7.03
2022-08-26T23:38:14.301Z,9.17
2022-08-26T23:40:41.983Z,7.27
2022-08-26T23:43:11.419Z,8.07
2022-08-26T23:45:38.725Z,7.03
2022-08-26T23:48:06.547Z,7.13
2022-08-26T23:50:52.805Z,8.07
2022-08-26T23:53:22.558Z,8.57
2022-08-26T23:55:50.923Z,7.13
2022-08-26T23:58:18.989Z,7.00
